| time (UTC) | temp F | wind direction | speed MPH | gust MPH | rain 1hr in | rain 24hr in | rain mn in | humidity % | barometer mb |
| 20260905064833 | 71 | 17 | 0.0 | 4.0 | 0.00 | 0.00 | 0.00 | 65 | 1007.5 |
| 20260905064334 | 72 | 22 | 1.0 | 4.0 | 0.00 | 0.00 | 0.00 | 65 | 1007.6 |
| 20260905063829 | 73 | 350 | 1.0 | 4.0 | 0.00 | 0.00 | 0.00 | 63 | 1007.6 |
| 20260905063324 | 74 | 290 | 1.0 | 9.0 | 0.00 | 0.00 | 0.00 | 59 | 1007.3 |
| 20260905062821 | 75 | 280 | 2.0 | 9.0 | 0.00 | 0.00 | 0.00 | 56 | 1007.2 |
| 20260905062310 | 77 | 59 | 2.0 | 15.0 | 0.00 | 0.00 | 0.00 | 52 | 1007.2 |
| 20260905061810 | 82 | 224 | 3.0 | 15.0 | 0.00 | 0.00 | 0.00 | 46 | 1007.2 |
| 20260905061529 | 85 | 310 | 2.0 | 12.0 | 0.00 | 0.00 | 0.00 | 37 | 1007.1 |
| 20260905060810 | 86 | 231 | 2.0 | 6.0 | 0.00 | 0.00 | 0.00 | 31 | 1005.7 |
| 20260905060300 | 86 | 228 | 2.0 | 7.0 | 0.00 | 0.00 | 0.00 | 30 | 1005.4 |
| 20260905055749 | 86 | 250 | 2.0 | 7.0 | 0.00 | 0.00 | 0.00 | 30 | 1005.3 |
| 20260905055240 | 87 | 236 | 1.0 | 7.0 | 0.00 | 0.00 | 0.00 | 30 | 1005.1 |
| 20260905054729 | 87 | 264 | 1.0 | 7.0 | 0.00 | 0.00 | 0.00 | 29 | 1004.9 |
| 20260905054442 | 86 | 0 | 1.0 | 7.0 | 0.00 | 0.00 | 0.00 | 29 | 1004.6 |
| 20260905053708 | 87 | 202 | 2.0 | 7.0 | 0.00 | 0.00 | 0.00 | 29 | 1004.3 |
| 20260905053207 | 87 | 225 | 3.0 | 7.0 | 0.00 | 0.00 | 0.00 | 29 | 1004.3 |
| 20260905052657 | 87 | 223 | 3.0 | 10.0 | 0.00 | 0.00 | 0.00 | 28 | 1004.3 |
| 20260905052148 | 88 | 40 | 4.0 | 10.0 | 0.00 | 0.00 | 0.00 | 28 | 1004.1 |
| 20260905051637 | 88 | 323 | 4.0 | 11.0 | 0.00 | 0.00 | 0.00 | 27 | 1004.1 |
| 20260905051132 | 89 | 267 | 3.0 | 11.0 | 0.00 | 0.00 | 0.00 | 27 | 1004.1 |
| 20260905050622 | 89 | 219 | 3.0 | 10.0 | 0.00 | 0.00 | 0.00 | 27 | 1004.1 |
| 20260905050111 | 88 | 266 | 2.0 | 10.0 | 0.00 | 0.00 | 0.00 | 28 | 1004.1 |
| 20260905045602 | 88 | 307 | 2.0 | 8.0 | 0.00 | 0.00 | 0.00 | 30 | 1004.2 |
| 20260905045319 | 89 | 281 | 2.0 | 10.0 | 0.00 | 0.00 | 0.00 | 30 | 1004.1 |
| 20260905044559 | 89 | 309 | 2.0 | 10.0 | 0.00 | 0.00 | 0.00 | 30 | 1004.1 |
| 20260905044042 | 89 | 290 | 2.0 | 8.0 | 0.00 | 0.00 | 0.00 | 30 | 1004.1 |
| 20260905043529 | 90 | 259 | 3.0 | 9.0 | 0.00 | 0.00 | 0.00 | 30 | 1004.2 |
| 20260905043019 | 90 | 244 | 2.0 | 9.0 | 0.00 | 0.00 | 0.00 | 29 | 1004.0 |
| 20260905042728 | 90 | 42 | 2.0 | 8.0 | 0.00 | 0.00 | 0.00 | 30 | 1004.2 |
| 20260905042007 | 90 | 92 | 2.0 | 12.0 | 0.00 | 0.00 | 0.00 | 28 | 1004.2 |
| 20260905041457 | 90 | 291 | 2.0 | 12.0 | 0.00 | 0.00 | 0.00 | 29 | 1004.4 |
| 20260905040951 | 90 | 318 | 2.0 | 7.0 | 0.00 | 0.00 | 0.00 | 30 | 1004.3 |
| 20260905040442 | 89 | 266 | 3.0 | 9.0 | 0.00 | 0.00 | 0.00 | 31 | 1004.3 |
| 20260905035936 | 89 | 306 | 3.0 | 9.0 | 0.00 | 0.00 | 0.00 | 30 | 1004.5 |
| 20260905035429 | 89 | 273 | 3.0 | 7.0 | 0.00 | 0.00 | 0.00 | 30 | 1004.5 |
| 20260905034919 | 89 | 268 | 3.0 | 9.0 | 0.00 | 0.00 | 0.00 | 31 | 1004.7 |
| 20260905034632 | 89 | 310 | 3.0 | 9.0 | 0.00 | 0.00 | 0.00 | 32 | 1004.7 |
| 20260905033903 | 88 | 304 | 3.0 | 8.0 | 0.00 | 0.00 | 0.00 | 32 | 1005.0 |
| 20260905033354 | 88 | 269 | 3.0 | 11.0 | 0.00 | 0.00 | 0.00 | 33 | 1004.9 |
| 20260905032847 | 88 | 329 | 2.0 | 11.0 | 0.00 | 0.00 | 0.00 | 32 | 1005.0 |
| 20260905032602 | 87 | 45 | 2.0 | 8.0 | 0.00 | 0.00 | 0.00 | 34 | 1005.2 |
| 20260905031832 | 87 | 258 | 2.0 | 9.0 | 0.00 | 0.00 | 0.00 | 34 | 1005.4 |
| 20260905031320 | 87 | 324 | 2.0 | 9.0 | 0.00 | 0.00 | 0.00 | 35 | 1005.6 |
| 20260905030817 | 86 | 348 | 2.0 | 6.0 | 0.00 | 0.00 | 0.00 | 34 | 1005.7 |
| 20260905030309 | 86 | 42 | 3.0 | 9.0 | 0.00 | 0.00 | 0.00 | 35 | 1006.0 |
| 20260905030028 | 86 | 336 | 2.0 | 9.0 | 0.00 | 0.00 | 0.00 | 34 | 1006.2 |
| 20260905025250 | 85 | 35 | 2.0 | 6.0 | 0.00 | 0.00 | 0.00 | 35 | 1006.3 |
| 20260905024959 | 85 | 285 | 3.0 | 8.0 | 0.00 | 0.00 | 0.00 | 35 | 1006.6 |
| 20260905024450 | 85 | 325 | 3.0 | 8.0 | 0.00 | 0.00 | 0.00 | 36 | 1006.8 |
| 20260905024212 | 85 | 355 | 2.0 | 6.0 | 0.00 | 0.00 | 0.00 | 36 | 1006.9 |
| 20260905023209 | 85 | 22 | 3.0 | 12.0 | 0.00 | 0.00 | 0.00 | 37 | 1007.1 |
| 20260905022703 | 84 | 329 | 4.0 | 12.0 | 0.00 | 0.00 | 0.00 | 36 | 1007.4 |
| 20260905022153 | 83 | 328 | 4.0 | 12.0 | 0.00 | 0.00 | 0.00 | 37 | 1007.5 |
| 20260905021643 | 83 | 324 | 3.0 | 8.0 | 0.00 | 0.00 | 0.00 | 37 | 1007.6 |
| 20260905021137 | 83 | 48 | 2.0 | 7.0 | 0.00 | 0.00 | 0.00 | 36 | 1007.9 |
| 20260905020632 | 84 | 0 | 2.0 | 7.0 | 0.00 | 0.00 | 0.00 | 37 | 1008.2 |
| 20260905020121 | 83 | 346 | 2.0 | 7.0 | 0.00 | 0.00 | 0.00 | 38 | 1008.2 |
| 20260905015610 | 83 | 36 | 2.0 | 6.0 | 0.00 | 0.00 | 0.00 | 38 | 1008.5 |
| 20260905015105 | 83 | 34 | 1.0 | 6.0 | 0.00 | 0.00 | 0.00 | 38 | 1008.7 |
| 20260905014555 | 83 | 336 | 2.0 | 8.0 | 0.00 | 0.00 | 0.00 | 38 | 1008.8 |
| 20260905014048 | 83 | 323 | 2.0 | 8.0 | 0.00 | 0.00 | 0.00 | 38 | 1008.9 |
| 20260905013543 | 83 | 18 | 2.0 | 8.0 | 0.00 | 0.00 | 0.00 | 38 | 1009.1 |
| 20260905013042 | 83 | 317 | 2.0 | 8.0 | 0.00 | 0.00 | 0.00 | 38 | 1009.2 |
| 20260905012538 | 82 | 85 | 1.0 | 6.0 | 0.00 | 0.00 | 0.00 | 39 | 1009.3 |
| 20260905012035 | 82 | 118 | 2.0 | 5.0 | 0.00 | 0.00 | 0.00 | 40 | 1009.4 |
| 20260905011527 | 82 | 313 | 2.0 | 5.0 | 0.00 | 0.00 | 0.00 | 40 | 1009.6 |
| 20260905011025 | 81 | 306 | 1.0 | 6.0 | 0.00 | 0.00 | 0.00 | 39 | 1009.8 |
| 20260905010526 | 82 | 344 | 1.0 | 6.0 | 0.00 | 0.00 | 0.00 | 38 | 1009.8 |
| 20260905010026 | 82 | 279 | 1.0 | 4.0 | 0.00 | 0.00 | 0.00 | 38 | 1009.9 |
| 20260905005523 | 82 | 310 | 1.0 | 5.0 | 0.00 | 0.00 | 0.00 | 40 | 1010.1 |
| 20260905005006 | 81 | 13 | 1.0 | 5.0 | 0.00 | 0.00 | 0.00 | 39 | 1010.1 |
| 20260905004501 | 81 | 291 | 1.0 | 5.0 | 0.00 | 0.00 | 0.00 | 38 | 1010.4 |
| 20260905003953 | 80 | 355 | 2.0 | 6.0 | 0.00 | 0.00 | 0.00 | 40 | 1010.4 |
| 20260905003438 | 80 | 303 | 1.0 | 6.0 | 0.00 | 0.00 | 0.00 | 40 | 1010.5 |
| 20260905002938 | 80 | 321 | 1.0 | 6.0 | 0.00 | 0.00 | 0.00 | 43 | 1010.7 |
| 20260905002929 | 79 | 313 | 1.0 | 6.0 | 0.00 | 0.00 | 0.00 | 40 | 1010.9 |
| 20260905001938 | 79 | 37 | 1.0 | 5.0 | 0.00 | 0.00 | 0.00 | 43 | 1011.1 |
| 20260905001427 | 78 | 17 | 1.0 | 5.0 | 0.00 | 0.00 | 0.00 | 44 | 1011.2 |
| 20260905000910 | 78 | 316 | 1.0 | 5.0 | 0.00 | 0.00 | 0.00 | 42 | 1011.5 |
| 20260905000358 | 78 | 348 | 1.0 | 5.0 | 0.00 | 0.00 | 0.00 | 44 | 1011.6 |
| 20260904235843 | 77 | 340 | 1.0 | 5.0 | 0.00 | 0.00 | 0.00 | 43 | 1011.7 |
| 20260904235336 | 76 | 280 | 1.0 | 5.0 | 0.00 | 0.00 | 0.00 | 43 | 1011.8 |
| 20260904234834 | 76 | 351 | 2.0 | 7.0 | 0.00 | 0.00 | 0.00 | 44 | 1011.9 |
| 20260904234558 | 76 | 318 | 2.0 | 7.0 | 0.00 | 0.00 | 0.00 | 42 | 1012.1 |
| 20260904233830 | 76 | 294 | 2.0 | 6.0 | 0.00 | 0.00 | 0.00 | 43 | 1012.1 |
| 20260904233327 | 76 | 28 | 2.0 | 11.0 | 0.00 | 0.00 | 0.00 | 45 | 1012.2 |
| 20260904232829 | 75 | 269 | 2.0 | 11.0 | 0.00 | 0.00 | 0.00 | 44 | 1012.2 |
| 20260904232325 | 75 | 273 | 2.0 | 8.0 | 0.00 | 0.00 | 0.00 | 43 | 1012.5 |
| 20260904231826 | 75 | 319 | 2.0 | 7.0 | 0.00 | 0.00 | 0.00 | 45 | 1012.6 |
| 20260904231318 | 74 | 302 | 1.0 | 7.0 | 0.00 | 0.00 | 0.00 | 45 | 1012.6 |
| 20260904231027 | 74 | 271 | 1.0 | 5.0 | 0.00 | 0.00 | 0.00 | 47 | 1012.8 |
| 20260904230304 | 74 | 37 | 1.0 | 5.0 | 0.00 | 0.00 | 0.00 | 46 | 1012.8 |
| 20260904225752 | 73 | 323 | 1.0 | 4.0 | 0.00 | 0.00 | 0.00 | 48 | 1012.8 |
| 20260904225248 | 73 | 329 | 1.0 | 6.0 | 0.00 | 0.00 | 0.00 | 49 | 1012.7 |
| 20260904225004 | 72 | 327 | 1.0 | 6.0 | 0.00 | 0.00 | 0.00 | 49 | 1012.8 |
| 20260904224454 | 72 | 330 | 0.0 | 2.0 | 0.00 | 0.00 | 0.00 | 50 | 1012.8 |
| 20260904223724 | 71 | 328 | 0.0 | 3.0 | 0.00 | 0.00 | 0.00 | 51 | 1013.1 |
| 20260904223215 | 71 | 308 | 1.0 | 7.0 | 0.00 | 0.00 | 0.00 | 49 | 1013.3 |
| 20260904222704 | 71 | 316 | 0.0 | 5.0 | 0.00 | 0.00 | 0.00 | 51 | 1013.5 |
| 20260904222159 | 71 | 341 | 0.0 | 4.0 | 0.00 | 0.00 | 0.00 | 51 | 1013.6 |
| 20260904221653 | 70 | 340 | 0.0 | 4.0 | 0.00 | 0.00 | 0.00 | 52 | 1013.6 |
| 20260904221152 | 70 | 340 | 0.0 | 5.0 | 0.00 | 0.00 | 0.00 | 51 | 1013.7 |
| 20260904220646 | 70 | 340 | 0.0 | 5.0 | 0.00 | 0.00 | 0.00 | 52 | 1013.7 |
| 20260904220400 | 70 | 0 | 0.0 | 1.0 | 0.00 | 0.00 | 0.00 | 51 | 1013.7 |
| 20260904215844 | 69 | 0 | 0.0 | 1.0 | 0.00 | 0.00 | 0.00 | 52 | 1013.8 |
| 20260904215103 | 69 | 0 | 0.0 | 0.0 | 0.00 | 0.00 | 0.00 | 54 | 1013.7 |
| 20260904214602 | 68 | 0 | 0.0 | 0.0 | 0.00 | 0.00 | 0.00 | 55 | 1013.7 |
| 20260904214053 | 68 | 0 | 0.0 | 2.0 | 0.00 | 0.00 | 0.00 | 55 | 1013.6 |
| 20260904213820 | 67 | 0 | 0.0 | 2.0 | 0.00 | 0.00 | 0.00 | 56 | 1013.7 |
| 20260904213055 | 67 | 0 | 0.0 | 2.0 | 0.00 | 0.00 | 0.00 | 55 | 1013.9 |
| 20260904212803 | 67 | 0 | 0.0 | 2.0 | 0.00 | 0.00 | 0.00 | 55 | 1013.8 |
| 20260904212252 | 67 | 0 | 0.0 | 1.0 | 0.00 | 0.00 | 0.00 | 57 | 1013.7 |
| 20260904211504 | 66 | 0 | 0.0 | 2.0 | 0.00 | 0.00 | 0.00 | 56 | 1013.6 |
| 20260904211213 | 66 | 0 | 0.0 | 3.0 | 0.00 | 0.00 | 0.00 | 57 | 1013.6 |
| 20260904210448 | 65 | 0 | 0.0 | 3.0 | 0.00 | 0.00 | 0.00 | 57 | 1013.7 |
| 20260904205942 | 65 | 15 | 0.0 | 2.0 | 0.00 | 0.00 | 0.00 | 58 | 1013.6 |
| 20260904205653 | 64 | 15 | 0.0 | 2.0 | 0.00 | 0.00 | 0.00 | 59 | 1013.5 |
| 20260904204923 | 64 | 16 | 0.0 | 0.0 | 0.00 | 0.00 | 0.00 | 59 | 1013.7 |
| 20260904204639 | 63 | 16 | 0.0 | 0.0 | 0.00 | 0.00 | 0.00 | 59 | 1013.8 |
| 20260904203906 | 63 | 16 | 0.0 | 0.0 | 0.00 | 0.00 | 0.00 | 59 | 1013.7 |
| 20260904203400 | 63 | 16 | 0.0 | 1.0 | 0.00 | 0.00 | 0.00 | 59 | 1013.7 |
| 20260904203107 | 63 | 16 | 0.0 | 2.0 | 0.00 | 0.00 | 0.00 | 59 | 1013.8 |
| 20260904202952 | 63 | 16 | 0.0 | 2.0 | 0.00 | 0.00 | 0.00 | 59 | 1013.8 |
| 20260904201850 | 63 | 16 | 0.0 | 8.0 | 0.00 | 0.00 | 0.00 | 60 | 1013.6 |
| 20260904201341 | 63 | 16 | 0.0 | 8.0 | 0.00 | 0.00 | 0.00 | 59 | 1013.7 |
| 20260904200813 | 63 | 54 | 0.0 | 3.0 | 0.00 | 0.00 | 0.00 | 59 | 1013.7 |
| 20260904200307 | 63 | 54 | 0.0 | 8.0 | 0.00 | 0.00 | 0.00 | 60 | 1013.6 |
| 20260904195757 | 63 | 57 | 0.0 | 8.0 | 0.00 | 0.00 | 0.00 | 60 | 1013.5 |
| 20260904195254 | 63 | 355 | 0.0 | 2.0 | 0.00 | 0.00 | 0.00 | 60 | 1013.5 |
| 20260904194753 | 63 | 355 | 0.0 | 2.0 | 0.00 | 0.00 | 0.00 | 60 | 1013.5 |
| 20260904194254 | 63 | 355 | 0.0 | 3.0 | 0.00 | 0.00 | 0.00 | 61 | 1013.6 |
| 20260904193752 | 63 | 355 | 0.0 | 3.0 | 0.00 | 0.00 | 0.00 | 61 | 1013.6 |
| 20260904193246 | 63 | 355 | 0.0 | 2.0 | 0.00 | 0.00 | 0.00 | 61 | 1013.6 |
| 20260904192743 | 63 | 355 | 0.0 | 2.0 | 0.00 | 0.00 | 0.00 | 62 | 1013.4 |
| 20260904192236 | 63 | 355 | 0.0 | 2.0 | 0.00 | 0.00 | 0.00 | 62 | 1013.4 |
| 20260904191734 | 63 | 355 | 0.0 | 1.0 | 0.00 | 0.00 | 0.00 | 62 | 1013.3 |
| 20260904191212 | 63 | 355 | 0.0 | 1.0 | 0.00 | 0.00 | 0.00 | 62 | 1013.3 |
| 20260904190710 | 62 | 355 | 0.0 | 1.0 | 0.00 | 0.00 | 0.00 | 62 | 1013.5 |
| 20260904190431 | 63 | 355 | 0.0 | 1.0 | 0.00 | 0.00 | 0.00 | 63 | 1013.5 |
| 20260904185705 | 62 | 355 | 0.0 | 1.0 | 0.00 | 0.00 | 0.00 | 63 | 1013.4 |
| 20260904185204 | 62 | 355 | 0.0 | 1.0 | 0.00 | 0.00 | 0.00 | 64 | 1013.4 |
| 20260904184905 | 62 | 355 | 0.0 | 1.0 | 0.00 | 0.00 | 0.00 | 64 | 1013.4 |
| 20260904184357 | 62 | 355 | 0.0 | 2.0 | 0.00 | 0.00 | 0.00 | 64 | 1013.7 |
| 20260904183627 | 62 | 355 | 0.0 | 3.0 | 0.00 | 0.00 | 0.00 | 64 | 1013.7 |
| 20260904183116 | 62 | 355 | 0.0 | 1.0 | 0.00 | 0.00 | 0.00 | 64 | 1013.7 |
| 20260904182612 | 62 | 355 | 0.0 | 1.0 | 0.00 | 0.00 | 0.00 | 65 | 1013.7 |
| 20260904182106 | 62 | 355 | 0.0 | 1.0 | 0.00 | 0.00 | 0.00 | 65 | 1013.7 |
| 20260904181606 | 62 | 355 | 0.0 | 3.0 | 0.00 | 0.00 | 0.00 | 66 | 1013.8 |
| 20260904181258 | 61 | 355 | 0.0 | 3.0 | 0.00 | 0.00 | 0.00 | 67 | 1013.8 |
| 20260904180747 | 61 | 16 | 0.0 | 0.0 | 0.00 | 0.00 | 0.00 | 69 | 1013.8 |
| 20260904180008 | 60 | 16 | 0.0 | 0.0 | 0.00 | 0.00 | 0.00 | 70 | 1013.7 |
| 20260904175458 | 60 | 16 | 0.0 | 0.0 | 0.00 | 0.00 | 0.00 | 71 | 1013.6 |
| 20260904174948 | 60 | 16 | 0.0 | 0.0 | 0.00 | 0.00 | 0.00 | 71 | 1013.6 |
| 20260904174409 | 60 | 16 | 0.0 | 0.0 | 0.00 | 0.00 | 0.00 | 71 | 1013.5 |
| 20260904173901 | 60 | 16 | 0.0 | 0.0 | 0.00 | 0.00 | 0.00 | 72 | 1013.5 |
| 20260904173343 | 60 | 16 | 0.0 | 0.0 | 0.00 | 0.00 | 0.00 | 71 | 1013.6 |
| 20260904172843 | 60 | 16 | 0.0 | 0.0 | 0.00 | 0.00 | 0.00 | 71 | 1013.6 |
| 20260904172308 | 60 | 16 | 0.0 | 0.0 | 0.00 | 0.00 | 0.00 | 72 | 1013.6 |
| 20260904171800 | 59 | 16 | 0.0 | 0.0 | 0.00 | 0.00 | 0.00 | 72 | 1013.6 |
| 20260904171457 | 59 | 16 | 0.0 | 0.0 | 0.00 | 0.00 | 0.00 | 72 | 1013.7 |
| 20260904170951 | 59 | 16 | 0.0 | 0.0 | 0.00 | 0.00 | 0.00 | 72 | 1013.8 |
| 20260904170211 | 59 | 16 | 0.0 | 0.0 | 0.00 | 0.00 | 0.00 | 73 | 1013.8 |
| 20260904165655 | 59 | 16 | 0.0 | 0.0 | 0.00 | 0.00 | 0.00 | 73 | 1013.9 |
| 20260904165148 | 59 | 16 | 0.0 | 0.0 | 0.00 | 0.00 | 0.00 | 73 | 1013.9 |
| 20260904164626 | 58 | 16 | 0.0 | 0.0 | 0.00 | 0.00 | 0.00 | 73 | 1014.0 |
| 20260904164108 | 58 | 16 | 0.0 | 0.0 | 0.00 | 0.00 | 0.00 | 75 | 1014.0 |
| 20260904163601 | 58 | 16 | 0.0 | 0.0 | 0.00 | 0.00 | 0.00 | 76 | 1014.1 |
| 20260904163057 | 57 | 16 | 0.0 | 0.0 | 0.00 | 0.00 | 0.00 | 77 | 1014.2 |
| 20260904162554 | 57 | 16 | 0.0 | 0.0 | 0.00 | 0.00 | 0.00 | 80 | 1014.4 |
| 20260904162021 | 55 | 16 | 0.0 | 0.0 | 0.00 | 0.00 | 0.00 | 84 | 1014.4 |
| 20260904161507 | 55 | 16 | 0.0 | 0.0 | 0.00 | 0.00 | 0.00 | 84 | 1014.5 |
| 20260904161005 | 55 | 16 | 0.0 | 0.0 | 0.00 | 0.00 | 0.00 | 84 | 1014.7 |
| 20260904160501 | 54 | 16 | 0.0 | 0.0 | 0.00 | 0.00 | 0.00 | 84 | 1014.9 |
| 20260904155946 | 55 | 16 | 0.0 | 0.0 | 0.00 | 0.00 | 0.00 | 83 | 1015.0 |
| 20260904155436 | 55 | 16 | 0.0 | 0.0 | 0.00 | 0.00 | 0.00 | 82 | 1015.0 |
| 20260904154929 | 56 | 16 | 0.0 | 0.0 | 0.00 | 0.00 | 0.00 | 80 | 1015.1 |
| 20260904154646 | 57 | 16 | 0.0 | 0.0 | 0.00 | 0.00 | 0.00 | 79 | 1015.1 |
| 20260904153915 | 57 | 16 | 0.0 | 0.0 | 0.00 | 0.00 | 0.00 | 80 | 1015.2 |
| 20260904153404 | 57 | 16 | 0.0 | 0.0 | 0.00 | 0.00 | 0.00 | 80 | 1015.3 |
| 20260904152857 | 56 | 16 | 0.0 | 0.0 | 0.00 | 0.00 | 0.00 | 80 | 1015.3 |
| 20260904152333 | 56 | 16 | 0.0 | 0.0 | 0.00 | 0.00 | 0.00 | 81 | 1015.4 |
| 20260904151824 | 56 | 16 | 0.0 | 0.0 | 0.00 | 0.00 | 0.00 | 82 | 1015.4 |
| 20260904151258 | 56 | 16 | 0.0 | 0.0 | 0.00 | 0.00 | 0.00 | 81 | 1015.5 |
| 20260904151018 | 56 | 16 | 0.0 | 0.0 | 0.00 | 0.00 | 0.00 | 83 | 1015.5 |
| 20260904150229 | 55 | 16 | 0.0 | 0.0 | 0.00 | 0.00 | 0.00 | 84 | 1015.5 |
| 20260904145926 | 55 | 16 | 0.0 | 0.0 | 0.00 | 0.00 | 0.00 | 83 | 1015.6 |
| 20260904145427 | 56 | 16 | 0.0 | 0.0 | 0.00 | 0.00 | 0.00 | 82 | 1015.7 |
| 20260904144706 | 56 | 16 | 0.0 | 0.0 | 0.00 | 0.00 | 0.00 | 82 | 1015.8 |
| 20260904144412 | 56 | 16 | 0.0 | 0.0 | 0.00 | 0.00 | 0.00 | 83 | 1016.0 |
| 20260904143643 | 56 | 16 | 0.0 | 0.0 | 0.00 | 0.00 | 0.00 | 82 | 1016.0 |
| 20260904143143 | 56 | 16 | 0.0 | 0.0 | 0.00 | 0.00 | 0.00 | 81 | 1015.9 |
| 20260904142630 | 57 | 16 | 0.0 | 0.0 | 0.00 | 0.00 | 0.00 | 80 | 1015.9 |
| 20260904142105 | 57 | 16 | 0.0 | 0.0 | 0.00 | 0.00 | 0.00 | 80 | 1015.9 |
| 20260904141603 | 57 | 16 | 0.0 | 0.0 | 0.00 | 0.00 | 0.00 | 81 | 1016.0 |
| 20260904141054 | 56 | 16 | 0.0 | 0.0 | 0.00 | 0.00 | 0.00 | 82 | 1015.9 |
| 20260904140535 | 56 | 16 | 0.0 | 0.0 | 0.00 | 0.00 | 0.00 | 82 | 1015.8 |
| 20260904140008 | 57 | 16 | 0.0 | 0.0 | 0.00 | 0.00 | 0.00 | 82 | 1016.0 |
| 20260904135509 | 56 | 16 | 0.0 | 0.0 | 0.00 | 0.00 | 0.00 | 82 | 1016.0 |
| 20260904134953 | 56 | 16 | 0.0 | 0.0 | 0.00 | 0.00 | 0.00 | 82 | 1016.0 |
| 20260904134447 | 56 | 16 | 0.0 | 0.0 | 0.00 | 0.00 | 0.00 | 82 | 1016.1 |
| 20260904133945 | 56 | 16 | 0.0 | 0.0 | 0.00 | 0.00 | 0.00 | 82 | 1016.0 |
| 20260904133405 | 57 | 16 | 0.0 | 0.0 | 0.00 | 0.00 | 0.00 | 82 | 1016.1 |
| 20260904132851 | 57 | 16 | 0.0 | 0.0 | 0.00 | 0.00 | 0.00 | 82 | 1016.1 |
| 20260904132345 | 57 | 16 | 0.0 | 0.0 | 0.00 | 0.00 | 0.00 | 82 | 1016.1 |
| 20260904132319 | 57 | 16 | 0.0 | 0.0 | 0.00 | 0.00 | 0.00 | 82 | 1016.2 |
| 20260904131323 | 57 | 16 | 0.0 | 0.0 | 0.00 | 0.00 | 0.00 | 82 | 1016.2 |
| 20260904130813 | 57 | 16 | 0.0 | 0.0 | 0.00 | 0.00 | 0.00 | 82 | 1016.2 |
| 20260904130306 | 56 | 16 | 0.0 | 0.0 | 0.00 | 0.00 | 0.00 | 83 | 1016.3 |
| 20260904125806 | 57 | 16 | 0.0 | 0.0 | 0.00 | 0.00 | 0.00 | 82 | 1016.4 |
| 20260904125305 | 57 | 16 | 0.0 | 0.0 | 0.00 | 0.00 | 0.00 | 82 | 1016.5 |
| 20260904124755 | 57 | 16 | 0.0 | 0.0 | 0.00 | 0.00 | 0.00 | 81 | 1016.6 |
| 20260904124255 | 57 | 16 | 0.0 | 0.0 | 0.00 | 0.00 | 0.00 | 81 | 1016.5 |
| 20260904123958 | 58 | 16 | 0.0 | 0.0 | 0.00 | 0.00 | 0.00 | 80 | 1016.6 |
| 20260904123227 | 58 | 16 | 0.0 | 0.0 | 0.00 | 0.00 | 0.00 | 80 | 1016.6 |
| 20260904122710 | 58 | 16 | 0.0 | 0.0 | 0.00 | 0.00 | 0.00 | 80 | 1016.8 |
| 20260904122159 | 58 | 16 | 0.0 | 0.0 | 0.00 | 0.00 | 0.00 | 79 | 1016.8 |
| 20260904121643 | 58 | 16 | 0.0 | 0.0 | 0.00 | 0.00 | 0.00 | 79 | 1016.9 |
| 20260904121131 | 58 | 16 | 0.0 | 0.0 | 0.00 | 0.00 | 0.00 | 79 | 1017.0 |
| 20260904120614 | 58 | 16 | 0.0 | 0.0 | 0.00 | 0.00 | 0.00 | 78 | 1017.0 |
| 20260904120059 | 59 | 16 | 0.0 | 0.0 | 0.00 | 0.00 | 0.00 | 78 | 1016.9 |
| 20260904115546 | 59 | 16 | 0.0 | 0.0 | 0.00 | 0.00 | 0.00 | 77 | 1016.9 |
| 20260904115511 | 59 | 16 | 0.0 | 0.0 | 0.00 | 0.00 | 0.00 | 76 | 1017.0 |
| 20260904114515 | 60 | 16 | 0.0 | 0.0 | 0.00 | 0.00 | 0.00 | 75 | 1017.0 |
| 20260904114006 | 60 | 16 | 0.0 | 0.0 | 0.00 | 0.00 | 0.00 | 75 | 1017.0 |
| 20260904113447 | 60 | 16 | 0.0 | 0.0 | 0.00 | 0.00 | 0.00 | 74 | 1017.0 |
| 20260904112938 | 60 | 16 | 0.0 | 0.0 | 0.00 | 0.00 | 0.00 | 73 | 1017.3 |
| 20260904112419 | 61 | 16 | 0.0 | 0.0 | 0.00 | 0.00 | 0.00 | 72 | 1017.1 |
| 20260904111910 | 61 | 16 | 0.0 | 0.0 | 0.00 | 0.00 | 0.00 | 72 | 1017.3 |
| 20260904111354 | 61 | 16 | 0.0 | 0.0 | 0.00 | 0.00 | 0.00 | 71 | 1017.1 |
| 20260904110844 | 62 | 16 | 0.0 | 0.0 | 0.00 | 0.00 | 0.00 | 71 | 1017.0 |
| 20260904110604 | 61 | 16 | 0.0 | 0.0 | 0.00 | 0.00 | 0.00 | 72 | 1017.0 |
| 20260904105836 | 62 | 16 | 0.0 | 0.0 | 0.00 | 0.00 | 0.00 | 71 | 1017.0 |
| 20260904105543 | 62 | 16 | 0.0 | 0.0 | 0.00 | 0.00 | 0.00 | 71 | 1017.0 |
| 20260904104812 | 62 | 16 | 0.0 | 0.0 | 0.00 | 0.00 | 0.00 | 71 | 1017.0 |
| 20260904104310 | 62 | 16 | 0.0 | 0.0 | 0.00 | 0.00 | 0.00 | 70 | 1016.8 |
| 20260904104025 | 62 | 16 | 0.0 | 0.0 | 0.00 | 0.00 | 0.00 | 69 | 1016.9 |
| 20260904103733 | 63 | 16 | 0.0 | 0.0 | 0.00 | 0.00 | 0.00 | 68 | 1016.7 |
| 20260904103220 | 63 | 16 | 0.0 | 0.0 | 0.00 | 0.00 | 0.00 | 69 | 1016.5 |
| 20260904102220 | 63 | 16 | 0.0 | 0.0 | 0.00 | 0.00 | 0.00 | 68 | 1016.4 |
| 20260904101933 | 63 | 16 | 0.0 | 0.0 | 0.00 | 0.00 | 0.00 | 68 | 1016.3 |
| 20260904101212 | 63 | 16 | 0.0 | 3.0 | 0.00 | 0.00 | 0.00 | 68 | 1016.3 |
| 20260904100704 | 63 | 16 | 0.0 | 3.0 | 0.00 | 0.00 | 0.00 | 68 | 1016.2 |
| 20260904100154 | 63 | 16 | 0.0 | 0.0 | 0.00 | 0.00 | 0.00 | 67 | 1016.2 |
| 20260904095654 | 64 | 16 | 0.0 | 0.0 | 0.00 | 0.00 | 0.00 | 67 | 1016.2 |
| 20260904095151 | 63 | 16 | 0.0 | 0.0 | 0.00 | 0.00 | 0.00 | 67 | 1016.0 |
| 20260904094903 | 63 | 16 | 0.0 | 0.0 | 0.00 | 0.00 | 0.00 | 67 | 1015.9 |
| 20260904094128 | 63 | 16 | 0.0 | 0.0 | 0.00 | 0.00 | 0.00 | 67 | 1015.9 |
| 20260904093625 | 63 | 16 | 0.0 | 0.0 | 0.00 | 0.00 | 0.00 | 67 | 1015.9 |
| 20260904093113 | 63 | 16 | 0.0 | 0.0 | 0.00 | 0.00 | 0.00 | 67 | 1015.8 |
| 20260904092604 | 63 | 16 | 0.0 | 2.0 | 0.00 | 0.00 | 0.00 | 66 | 1015.8 |
| 20260904092046 | 63 | 16 | 0.0 | 2.0 | 0.00 | 0.00 | 0.00 | 66 | 1015.7 |
| 20260904091538 | 64 | 16 | 0.0 | 0.0 | 0.00 | 0.00 | 0.00 | 66 | 1015.6 |
| 20260904091249 | 64 | 16 | 0.0 | 0.0 | 0.00 | 0.00 | 0.00 | 66 | 1015.7 |
| 20260904090525 | 64 | 16 | 0.0 | 0.0 | 0.00 | 0.00 | 0.00 | 65 | 1015.6 |
| 20260904090010 | 64 | 16 | 0.0 | 0.0 | 0.00 | 0.00 | 0.00 | 65 | 1015.6 |
| 20260904085959 | 64 | 16 | 0.0 | 1.0 | 0.00 | 0.00 | 0.00 | 64 | 1015.7 |
| 20260904085008 | 64 | 16 | 0.0 | 2.0 | 0.00 | 0.00 | 0.00 | 64 | 1015.6 |
| 20260904084505 | 65 | 16 | 0.0 | 2.0 | 0.00 | 0.00 | 0.00 | 63 | 1015.6 |
| 20260904083954 | 65 | 16 | 0.0 | 1.0 | 0.00 | 0.00 | 0.00 | 63 | 1015.5 |
| 20260904083446 | 65 | 16 | 0.0 | 2.0 | 0.00 | 0.00 | 0.00 | 62 | 1015.4 |
| 20260904082937 | 65 | 16 | 0.0 | 2.0 | 0.00 | 0.00 | 0.00 | 61 | 1015.4 |
| 20260904082429 | 65 | 19 | 0.0 | 1.0 | 0.00 | 0.00 | 0.00 | 60 | 1015.3 |
| 20260904081918 | 66 | 19 | 0.0 | 2.0 | 0.00 | 0.00 | 0.00 | 60 | 1015.3 |
| 20260904081615 | 66 | 29 | 0.0 | 5.0 | 0.00 | 0.00 | 0.00 | 60 | 1015.2 |
| 20260904080849 | 67 | 29 | 0.0 | 5.0 | 0.00 | 0.00 | 0.00 | 58 | 1015.2 |
| 20260904080555 | 67 | 29 | 0.0 | 4.0 | 0.00 | 0.00 | 0.00 | 57 | 1015.1 |
| 20260904075838 | 67 | 29 | 0.0 | 4.0 | 0.00 | 0.00 | 0.00 | 56 | 1015.2 |
| 20260904075320 | 68 | 62 | 0.0 | 4.0 | 0.00 | 0.00 | 0.00 | 55 | 1015.3 |
| 20260904074812 | 68 | 62 | 0.0 | 4.0 | 0.00 | 0.00 | 0.00 | 54 | 1015.2 |
| 20260904074259 | 69 | 92 | 0.0 | 1.0 | 0.00 | 0.00 | 0.00 | 51 | 1015.1 |
| 20260904073755 | 70 | 92 | 0.0 | 0.0 | 0.00 | 0.00 | 0.00 | 47 | 1015.0 |
| 20260904073240 | 70 | 92 | 0.0 | 0.0 | 0.00 | 0.00 | 0.00 | 47 | 1014.8 |
| 20260904072730 | 70 | 92 | 0.0 | 0.0 | 0.00 | 0.00 | 0.00 | 47 | 1014.7 |
| 20260904072220 | 70 | 92 | 0.0 | 0.0 | 0.00 | 0.00 | 0.00 | 46 | 1014.6 |
| 20260904071710 | 70 | 92 | 0.0 | 0.0 | 0.00 | 0.00 | 0.00 | 47 | 1014.6 |
| 20260904071200 | 71 | 92 | 0.0 | 0.0 | 0.00 | 0.00 | 0.00 | 47 | 1014.6 |
| 20260904070650 | 71 | 92 | 0.0 | 0.0 | 0.00 | 0.00 | 0.00 | 46 | 1014.5 |
| 20260904070140 | 71 | 92 | 0.0 | 2.0 | 0.00 | 0.00 | 0.00 | 45 | 1014.5 |
| 20260904065630 | 71 | 92 | 0.0 | 2.0 | 0.00 | 0.00 | 0.00 | 45 | 1014.5 |
| 20260904065130 | 71 | 92 | 0.0 | 2.0 | 0.00 | 0.00 | 0.00 | 46 | 1014.4 |